sensor_id;sensor_type;location;lat;lon;timestamp;P1;durP1;ratioP1;P2;durP2;ratioP2
65053;SDS011;51639;47.828;35.038;2024-03-17T00:07:34;36.25;;;15.25;;
65053;SDS011;51639;47.828;35.038;2024-03-17T00:22:35;40.03;;;17.10;;
65053;SDS011;51639;47.828;35.038;2024-03-17T00:37:41;46.10;;;18.20;;
65053;SDS011;51639;47.828;35.038;2024-03-17T00:52:42;55.43;;;20.93;;
65053;SDS011;51639;47.828;35.038;2024-03-17T01:26:35;64.80;;;22.30;;
65053;SDS011;51639;47.828;35.038;2024-03-17T01:41:36;58.22;;;22.48;;
65053;SDS011;51639;47.828;35.038;2024-03-17T01:56:38;59.10;;;22.23;;
65053;SDS011;51639;47.828;35.038;2024-03-17T02:11:39;62.30;;;22.33;;
65053;SDS011;51639;47.828;35.038;2024-03-17T02:26:40;56.90;;;21.13;;
65053;SDS011;51639;47.828;35.038;2024-03-17T02:41:44;60.05;;;22.50;;
65053;SDS011;51639;47.828;35.038;2024-03-17T02:56:46;59.97;;;21.17;;
65053;SDS011;51639;47.828;35.038;2024-03-17T03:11:47;69.17;;;23.00;;
65053;SDS011;51639;47.828;35.038;2024-03-17T03:26:48;62.08;;;20.67;;
65053;SDS011;51639;47.828;35.038;2024-03-17T03:41:49;63.13;;;21.90;;
65053;SDS011;51639;47.828;35.038;2024-03-17T03:56:50;57.73;;;21.60;;
65053;SDS011;51639;47.828;35.038;2024-03-17T04:11:51;54.85;;;20.85;;
65053;SDS011;51639;47.828;35.038;2024-03-17T04:26:52;63.63;;;22.67;;
65053;SDS011;51639;47.828;35.038;2024-03-17T04:41:54;64.70;;;21.27;;
65053;SDS011;51639;47.828;35.038;2024-03-17T04:56:55;64.80;;;26.87;;
65053;SDS011;51639;47.828;35.038;2024-03-17T05:11:56;65.53;;;23.63;;
65053;SDS011;51639;47.828;35.038;2024-03-17T05:26:56;66.88;;;22.25;;
65053;SDS011;51639;47.828;35.038;2024-03-17T05:41:57;69.97;;;24.52;;
65053;SDS011;51639;47.828;35.038;2024-03-17T05:56:58;68.97;;;22.57;;
65053;SDS011;51639;47.828;35.038;2024-03-17T06:11:59;78.55;;;23.83;;
65053;SDS011;51639;47.828;35.038;2024-03-17T06:27:00;59.87;;;22.00;;
65053;SDS011;51639;47.828;35.038;2024-03-17T06:42:01;64.97;;;22.77;;
65053;SDS011;51639;47.828;35.038;2024-03-17T06:57:03;56.87;;;21.70;;
65053;SDS011;51639;47.828;35.038;2024-03-17T07:12:05;44.93;;;17.47;;
65053;SDS011;51639;47.828;35.038;2024-03-17T07:27:07;37.10;;;14.83;;
65053;SDS011;51639;47.828;35.038;2024-03-17T07:57:14;30.63;;;13.43;;
65053;SDS011;51639;47.828;35.038;2024-03-17T08:12:15;32.77;;;12.43;;
65053;SDS011;51639;47.828;35.038;2024-03-17T08:27:16;26.98;;;12.30;;
65053;SDS011;51639;47.828;35.038;2024-03-17T08:42:17;28.97;;;13.17;;
65053;SDS011;51639;47.828;35.038;2024-03-17T08:57:18;24.37;;;10.40;;
65053;SDS011;51639;47.828;35.038;2024-03-17T09:12:19;21.23;;;10.17;;
65053;SDS011;51639;47.828;35.038;2024-03-17T09:27:20;25.92;;;11.90;;
65053;SDS011;51639;47.828;35.038;2024-03-17T09:42:22;24.63;;;10.00;;
65053;SDS011;51639;47.828;35.038;2024-03-17T09:57:24;20.27;;;9.00;;
65053;SDS011;51639;47.828;35.038;2024-03-17T10:12:26;22.10;;;8.23;;
65053;SDS011;51639;47.828;35.038;2024-03-17T10:27:28;13.63;;;5.67;;
65053;SDS011;51639;47.828;35.038;2024-03-17T10:42:29;13.90;;;5.87;;
65053;SDS011;51639;47.828;35.038;2024-03-17T10:57:37;12.27;;;5.30;;
65053;SDS011;51639;47.828;35.038;2024-03-17T11:12:43;12.63;;;5.67;;
65053;SDS011;51639;47.828;35.038;2024-03-17T11:27:45;12.17;;;6.80;;
65053;SDS011;51639;47.828;35.038;2024-03-17T11:43:02;12.17;;;5.57;;
65053;SDS011;51639;47.828;35.038;2024-03-17T11:58:05;18.20;;;9.33;;
65053;SDS011;51639;47.828;35.038;2024-03-17T12:13:15;12.47;;;5.67;;
65053;SDS011;51639;47.828;35.038;2024-03-17T12:28:16;11.10;;;5.38;;
65053;SDS011;51639;47.828;35.038;2024-03-17T12:43:17;13.20;;;6.57;;
65053;SDS011;51639;47.828;35.038;2024-03-17T12:58:18;12.40;;;6.47;;
65053;SDS011;51639;47.828;35.038;2024-03-17T13:13:37;10.93;;;5.50;;
65053;SDS011;51639;47.828;35.038;2024-03-17T13:28:38;10.73;;;5.33;;
65053;SDS011;51639;47.828;35.038;2024-03-17T13:43:39;11.50;;;6.18;;
65053;SDS011;51639;47.828;35.038;2024-03-17T13:58:40;13.40;;;6.43;;
65053;SDS011;51639;47.828;35.038;2024-03-17T14:13:41;11.63;;;5.55;;
65053;SDS011;51639;47.828;35.038;2024-03-17T14:28:42;13.00;;;6.07;;
65053;SDS011;51639;47.828;35.038;2024-03-17T14:43:43;12.40;;;6.97;;
65053;SDS011;51639;47.828;35.038;2024-03-17T14:58:44;16.53;;;7.93;;
65053;SDS011;51639;47.828;35.038;2024-03-17T15:13:49;12.13;;;5.68;;
65053;SDS011;51639;47.828;35.038;2024-03-17T15:28:50;12.00;;;6.72;;
65053;SDS011;51639;47.828;35.038;2024-03-17T15:43:51;22.87;;;9.10;;
65053;SDS011;51639;47.828;35.038;2024-03-17T15:58:52;14.63;;;6.33;;
65053;SDS011;51639;47.828;35.038;2024-03-17T16:13:54;15.43;;;7.13;;
65053;SDS011;51639;47.828;35.038;2024-03-17T16:28:57;18.07;;;7.83;;
65053;SDS011;51639;47.828;35.038;2024-03-17T16:44:01;19.30;;;9.17;;
65053;SDS011;51639;47.828;35.038;2024-03-17T16:59:06;18.03;;;7.40;;
65053;SDS011;51639;47.828;35.038;2024-03-17T17:14:07;18.47;;;8.37;;
65053;SDS011;51639;47.828;35.038;2024-03-17T17:29:10;15.43;;;7.73;;
65053;SDS011;51639;47.828;35.038;2024-03-17T17:44:11;17.58;;;8.15;;
65053;SDS011;51639;47.828;35.038;2024-03-17T17:59:13;15.60;;;7.73;;
65053;SDS011;51639;47.828;35.038;2024-03-17T18:14:14;19.60;;;9.63;;
65053;SDS011;51639;47.828;35.038;2024-03-17T18:29:16;16.30;;;8.43;;
65053;SDS011;51639;47.828;35.038;2024-03-17T18:44:17;23.60;;;9.75;;
65053;SDS011;51639;47.828;35.038;2024-03-17T18:59:18;21.03;;;10.23;;
65053;SDS011;51639;47.828;35.038;2024-03-17T19:14:19;18.27;;;7.73;;
65053;SDS011;51639;47.828;35.038;2024-03-17T19:29:22;16.80;;;7.70;;
65053;SDS011;51639;47.828;35.038;2024-03-17T19:44:23;16.15;;;6.32;;
65053;SDS011;51639;47.828;35.038;2024-03-17T19:59:24;29.07;;;14.07;;
65053;SDS011;51639;47.828;35.038;2024-03-17T20:14:25;20.88;;;11.77;;
65053;SDS011;51639;47.828;35.038;2024-03-17T20:29:26;17.47;;;8.57;;
65053;SDS011;51639;47.828;35.038;2024-03-17T20:44:27;27.47;;;14.00;;
65053;SDS011;51639;47.828;35.038;2024-03-17T20:59:28;20.53;;;9.70;;
65053;SDS011;51639;47.828;35.038;2024-03-17T21:14:29;18.27;;;8.13;;
65053;SDS011;51639;47.828;35.038;2024-03-17T21:29:30;20.47;;;9.03;;
65053;SDS011;51639;47.828;35.038;2024-03-17T21:44:31;21.70;;;10.95;;
65053;SDS011;51639;47.828;35.038;2024-03-17T21:59:32;29.77;;;11.57;;
65053;SDS011;51639;47.828;35.038;2024-03-17T22:14:34;26.03;;;13.60;;
65053;SDS011;51639;47.828;35.038;2024-03-17T22:29:35;26.93;;;11.40;;
65053;SDS011;51639;47.828;35.038;2024-03-17T22:44:36;22.47;;;9.83;;
65053;SDS011;51639;47.828;35.038;2024-03-17T22:59:37;17.00;;;8.50;;
65053;SDS011;51639;47.828;35.038;2024-03-17T23:14:38;18.85;;;8.30;;
65053;SDS011;51639;47.828;35.038;2024-03-17T23:29:39;12.93;;;5.80;;
65053;SDS011;51639;47.828;35.038;2024-03-17T23:44:39;16.23;;;7.60;;
65053;SDS011;51639;47.828;35.038;2024-03-17T23:59:41;16.70;;;5.93;;
